Clarion, Iowa
Current Conditions -  °F | °C
As of 1:55 PM on Friday 24 Oct 2014 (Local Time) from KCAV Reporting Station
Overcast Overcast  
Wind Chill: 19°   Ceiling: 1800
Heat Index: 19°   Visibility: 9mi
Dew Point: 16°   Wind: 10mph
Humidity: 83%   Direction: 250°WSW
Pressure: 29.88"   Gusts: NA
Location:  42.73°N, 93.73°W
Report Text: KCAV 241855Z AUTO 25009KT 9SM FEW008 OVC018 19/16 A2988 RMK AO2
Loading
Personal Weather Stations






























Interactive Weather Map
Tropical Storm Tracking
New forecast layout! Learn more

10-Day Weather Forecast

Advertisements
Track Severe Weather on mobile